NZCH/CHC METAR and TAF weather

Enter ICAO airport designator
Station Type Date Time Source
NZCH METAR 2020/09/26 21:00 UTC NOAA

NZCH 262100Z AUTO 34012KT 320V020 9999 FEW100/// 15/05 Q0982 NOSIG


Station Type Date Time Source
NZCH Decoded METAR 2020/09/26 21:00 UTC NOAA

Christchurch, New Zealand (NZCH) 43-29S 172-33E 30M
Sep 26, 2020 - 05:00 PM EDT / 2020.09.26 2100 UTC
Wind: from the NNW (340 degrees) at 14 MPH (12 KT) (direction variable):0
Visibility: greater than 7 mile(s):0
Sky conditions: mostly clear
Temperature: 59 F (15 C)
Dew Point: 41 F (5 C)
Relative Humidity: 51%
Pressure (altimeter): 29.00 in. Hg (0982 hPa)
ob: NZCH 262100Z AUTO 34012KT 320V020 9999 FEW100/// 15/05 Q0982 NOSIG
cycle: 21

Station Type Date Time Source
NZCH TAF 2020/09/26 18:28 UTC NOAA

TAF NZCH 261726Z 2618/2718 02015G25KT 9999 FEW060
BECMG 2619/2621 28025G40KT
BECMG 2703/2705 32015G25KT
BECMG 2709/2711 32008KT

Example: see airport list